Time;durP1;ratioP1;P1;durP2;ratioP2;P2;SDS_P1;SDS_P2;PMS_P1;PMS_P2;Temp;Humidity;BMP_temperature;BMP_pressure;BME280_temperature;BME280_humidity;BME280_pressure;Samples;Min_cycle;Max_cycle;Signal;HPM_P1;HPM_P2
2023/01/01 00:01:13;;;;;;;29.75;13.63;;;14.60;99.90;;;;;;4725707;30;20107;-77
2023/01/01 00:03:39;;;;;;;24.67;11.30;;;14.50;99.90;;;;;;4740243;30;20060;-74
2023/01/01 00:06:10;;;;;;;22.85;11.07;;;14.30;99.90;;;;;;4738433;30;20056;-77
2023/01/01 00:08:37;;;;;;;19.33;10.52;;;14.20;99.90;;;;;;4738676;30;20579;-75
2023/01/01 00:11:05;;;;;;;21.52;11.48;;;14.00;99.90;;;;;;4713788;30;20709;-77
2023/01/01 00:13:31;;;;;;;21.27;10.60;;;13.90;99.90;;;;;;4729991;30;20571;-75
2023/01/01 00:16:09;;;;;;;21.70;10.98;;;13.70;99.90;;;;;;4716397;30;20067;-73
2023/01/01 00:18:35;;;;;;;22.27;10.00;;;13.70;99.90;;;;;;4735308;30;20061;-77
2023/01/01 00:21:06;;;;;;;25.83;11.45;;;13.70;99.90;;;;;;4732003;30;20205;-74
2023/01/01 00:23:34;;;;;;;18.27;9.52;;;13.60;99.90;;;;;;4732002;30;20043;-77
2023/01/01 00:26:00;;;;;;;19.02;9.55;;;13.50;99.90;;;;;;4748317;30;20044;-72
2023/01/01 00:28:26;;;;;;;25.67;10.90;;;13.40;99.90;;;;;;4731283;30;20060;-75
2023/01/01 00:30:51;;;;;;;31.70;13.20;;;13.30;99.90;;;;;;4742837;30;20092;-75
2023/01/01 00:33:17;;;;;;;33.33;14.32;;;13.10;99.90;;;;;;4705266;30;20573;-74
2023/01/01 00:35:43;;;;;;;22.63;11.88;;;13.00;99.90;;;;;;4746234;30;20151;-74
2023/01/01 00:38:08;;;;;;;22.17;10.68;;;13.10;99.90;;;;;;4749529;30;20575;-74
2023/01/01 00:40:34;;;;;;;25.73;13.48;;;13.00;99.90;;;;;;4731610;30;20144;-74
2023/01/01 00:43:00;;;;;;;30.02;13.80;;;13.00;99.90;;;;;;4750077;30;20064;-74
2023/01/01 00:45:25;;;;;;;31.17;16.33;;;13.10;99.90;;;;;;4750274;30;20060;-73
2023/01/01 00:47:52;;;;;;;30.90;16.60;;;13.10;99.90;;;;;;4748644;30;20097;-74
2023/01/01 00:50:19;;;;;;;33.10;17.17;;;13.10;99.90;;;;;;4750976;30;20064;-73
2023/01/01 00:52:45;;;;;;;36.95;20.55;;;13.20;99.90;;;;;;4751048;30;20506;-74
2023/01/01 00:55:11;;;;;;;38.90;20.77;;;13.30;99.90;;;;;;4751525;30;20135;-75
2023/01/01 00:57:37;;;;;;;47.10;25.48;;;13.30;99.90;;;;;;4751540;30;20139;-75
2023/01/01 01:00:04;;;;;;;32.55;16.95;;;13.20;99.90;;;;;;4750906;30;20051;-76
2023/01/01 01:02:30;;;;;;;38.40;23.80;;;13.30;99.90;;;;;;4736368;30;20049;-74
2023/01/01 01:04:55;;;;;;;48.95;27.70;;;13.30;99.90;;;;;;4750723;30;20797;-75
2023/01/01 01:07:21;;;;;;;54.65;28.75;;;13.20;99.90;;;;;;4751119;30;20052;-74
2023/01/01 01:09:47;;;;;;;51.17;28.52;;;13.20;99.90;;;;;;4750819;30;20056;-74
2023/01/01 01:12:12;;;;;;;44.80;21.10;;;13.30;99.90;;;;;;4751336;30;20146;-74
2023/01/01 01:14:38;;;;;;;41.13;24.13;;;13.40;99.90;;;;;;4736299;30;20052;-75
2023/01/01 01:17:04;;;;;;;45.10;26.17;;;13.40;99.90;;;;;;4750814;30;20378;-74
2023/01/01 01:19:29;;;;;;;41.40;21.67;;;13.40;99.90;;;;;;4747933;30;20158;-74
2023/01/01 01:21:55;;;;;;;46.55;26.88;;;13.50;99.90;;;;;;4750255;30;20068;-73
2023/01/01 01:24:21;;;;;;;40.40;22.90;;;13.60;99.90;;;;;;4745643;30;20098;-74
2023/01/01 01:26:46;;;;;;;38.53;21.02;;;13.70;99.90;;;;;;4723535;30;20060;-78
2023/01/01 01:29:12;;;;;;;41.22;22.45;;;13.60;99.90;;;;;;4752717;30;20406;-73
2023/01/01 01:31:38;;;;;;;41.70;21.25;;;13.70;99.90;;;;;;4753015;30;20189;-75
2023/01/01 01:34:05;;;;;;;41.28;21.95;;;13.70;99.90;;;;;;4738299;30;20059;-73
2023/01/01 01:36:31;;;;;;;45.00;24.88;;;13.80;99.90;;;;;;4753225;30;20533;-75
2023/01/01 01:38:57;;;;;;;44.08;22.15;;;13.80;99.90;;;;;;4752937;30;20177;-74
2023/01/01 01:41:25;;;;;;;33.00;17.38;;;13.80;99.90;;;;;;4753154;30;20095;-74
2023/01/01 01:43:55;;;;;;;36.50;20.02;;;13.80;99.90;;;;;;4752731;30;20048;-77
2023/01/01 01:46:33;;;;;;;40.00;21.77;;;13.90;99.90;;;;;;4753062;30;20490;-74
2023/01/01 01:49:04;;;;;;;45.78;24.35;;;13.80;99.90;;;;;;4752838;30;20117;-75
2023/01/01 01:51:37;;;;;;;39.15;22.20;;;13.60;99.90;;;;;;4752389;30;20098;-74
2023/01/01 01:54:09;;;;;;;43.92;28.23;;;13.40;99.90;;;;;;4752469;30;20052;-76
2023/01/01 01:56:59;;;;;;;55.67;30.17;;;13.30;99.90;;;;;;4752797;30;20060;-76
2023/01/01 01:59:28;;;;;;;49.70;26.85;;;13.20;99.90;;;;;;4752806;30;20059;-78
2023/01/01 02:01:55;;;;;;;51.13;27.60;;;13.30;99.90;;;;;;4752567;30;20155;-77
2023/01/01 02:04:20;;;;;;;41.40;21.85;;;13.20;99.90;;;;;;4752715;30;20059;-74
2023/01/01 02:06:47;;;;;;;55.33;31.98;;;13.20;99.90;;;;;;4752660;30;20406;-76
2023/01/01 02:09:13;;;;;;;42.33;23.90;;;13.10;99.90;;;;;;4752511;30;20068;-74
2023/01/01 02:11:39;;;;;;;50.08;27.65;;;13.10;99.90;;;;;;4752435;30;20055;-76
2023/01/01 02:14:05;;;;;;;48.15;24.38;;;13.10;99.90;;;;;;4737354;30;20078;-77
2023/01/01 02:16:45;;;;;;;39.97;21.95;;;13.40;99.90;;;;;;4737816;30;20078;-75
2023/01/01 02:19:47;;;;;;;43.50;25.92;;;13.30;99.90;;;;;;4751738;30;20056;-76
2023/01/01 02:22:44;;;;;;;45.38;24.27;;;13.20;99.90;;;;;;4752294;30;20048;-75
2023/01/01 02:25:28;;;;;;;42.97;24.45;;;13.20;99.90;;;;;;4753147;30;20555;-76
2023/01/01 02:28:01;;;;;;;40.70;21.85;;;13.20;99.90;;;;;;4752389;30;20109;-76
2023/01/01 02:30:29;;;;;;;53.83;28.25;;;13.40;99.90;;;;;;4753218;30;20434;-75
2023/01/01 02:33:03;;;;;;;39.25;22.15;;;13.30;99.90;;;;;;4752027;30;20413;-77
2023/01/01 02:35:37;;;;;;;36.85;19.98;;;13.40;99.90;;;;;;4752215;30;20554;-74
2023/01/01 02:38:24;;;;;;;41.20;21.77;;;13.40;99.90;;;;;;4752050;30;20052;-75
2023/01/01 02:40:54;;;;;;;31.05;18.33;;;13.40;99.90;;;;;;4752104;30;20056;-76
2023/01/01 02:43:20;;;;;;;43.35;21.85;;;13.60;99.90;;;;;;4752013;30;20473;-74
2023/01/01 02:45:46;;;;;;;35.00;21.38;;;13.50;99.90;;;;;;4751950;30;20098;-75
2023/01/01 02:48:42;;;;;;;33.25;18.15;;;13.60;99.90;;;;;;4751757;30;20148;-74
2023/01/01 02:51:14;;;;;;;31.77;15.40;;;13.60;99.90;;;;;;4751381;30;20064;-74
2023/01/01 02:54:03;;;;;;;34.40;18.48;;;13.70;99.90;;;;;;4752151;30;20091;-76
2023/01/01 02:56:41;;;;;;;34.05;15.27;;;13.70;99.90;;;;;;4751947;30;20071;-78
2023/01/01 03:02:38;;;;;;;29.48;13.25;;;13.70;99.90;;;;;;4751791;30;20056;-73
2023/01/01 03:05:21;;;;;;;30.90;14.35;;;13.80;99.90;;;;;;4750134;30;20052;-74
2023/01/01 03:08:18;;;;;;;24.02;11.18;;;13.80;99.90;;;;;;4751740;30;20056;-74
2023/01/01 03:10:57;;;;;;;23.48;11.45;;;13.80;99.90;;;;;;4736481;30;20056;-74
2023/01/01 03:13:26;;;;;;;21.48;11.15;;;13.70;99.90;;;;;;4751514;30;20054;-74
2023/01/01 03:15:54;;;;;;;23.45;11.20;;;13.80;99.90;;;;;;4751387;30;20410;-75
2023/01/01 03:18:28;;;;;;;25.88;9.98;;;13.80;99.90;;;;;;4751293;30;20056;-74
2023/01/01 03:20:58;;;;;;;17.98;8.55;;;13.90;99.90;;;;;;4751477;30;20060;-76
2023/01/01 03:23:31;;;;;;;18.15;9.63;;;14.00;99.90;;;;;;4751332;30;20056;-73
2023/01/01 03:26:01;;;;;;;23.17;8.82;;;14.00;99.90;;;;;;4736815;30;20106;-75
2023/01/01 03:28:35;;;;;;;17.80;8.15;;;13.90;99.90;;;;;;4751175;30;20448;-75
2023/01/01 03:31:01;;;;;;;18.15;9.35;;;13.90;99.90;;;;;;4750943;30;20048;-74
2023/01/01 03:33:42;;;;;;;17.63;7.22;;;13.90;99.90;;;;;;4750876;30;20063;-74
2023/01/01 03:36:13;;;;;;;11.02;6.32;;;14.00;99.90;;;;;;4736516;30;20129;-75
2023/01/01 03:39:00;;;;;;;13.45;5.93;;;14.00;99.90;;;;;;4750994;30;20052;-76
2023/01/01 03:41:34;;;;;;;12.55;6.38;;;14.10;99.90;;;;;;4750991;30;20095;-77
2023/01/01 03:44:27;;;;;;;16.60;6.53;;;14.20;99.90;;;;;;4751162;30;20071;-74
2023/01/01 03:46:53;;;;;;;14.27;5.93;;;14.10;99.90;;;;;;4750974;30;20085;-77
2023/01/01 03:49:20;;;;;;;13.40;5.45;;;14.30;99.90;;;;;;4750802;30;20130;-77
2023/01/01 03:51:59;;;;;;;16.88;5.28;;;14.20;99.90;;;;;;4750878;30;20056;-76
2023/01/01 03:54:49;;;;;;;10.38;4.40;;;14.10;99.90;;;;;;4736228;30;20055;-77
2023/01/01 03:57:51;;;;;;;12.82;4.63;;;14.20;99.90;;;;;;4750771;30;20142;-76
2023/01/01 04:00:30;;;;;;;14.27;5.20;;;14.20;99.90;;;;;;4719131;30;20064;-75
2023/01/01 04:03:03;;;;;;;15.82;4.90;;;14.00;99.90;;;;;;4751036;30;20139;-76
2023/01/01 04:05:34;;;;;;;15.13;4.53;;;14.00;99.90;;;;;;4736117;30;20060;-75
2023/01/01 04:08:01;;;;;;;12.82;5.75;;;13.60;99.90;;;;;;4750967;30;20143;-80
2023/01/01 04:10:30;;;;;;;21.33;6.13;;;13.40;99.90;;;;;;4750565;30;20060;-77
2023/01/01 04:12:57;;;;;;;12.48;5.32;;;13.20;99.90;;;;;;4750941;30;20107;-75
2023/01/01 04:15:26;;;;;;;13.57;6.07;;;13.10;99.90;;;;;;4736110;30;20064;-78
2023/01/01 04:17:52;;;;;;;11.85;5.25;;;13.00;99.90;;;;;;4752000;30;20069;-77
2023/01/01 04:20:19;;;;;;;16.00;6.38;;;13.00;99.90;;;;;;4754296;30;20070;-77
2023/01/01 04:22:45;;;;;;;21.33;5.82;;;12.70;99.90;;;;;;4754224;30;20063;-75
2023/01/01 04:25:11;;;;;;;18.92;6.05;;;12.80;99.90;;;;;;4754434;30;20052;-76
2023/01/01 04:27:38;;;;;;;16.33;5.53;;;12.70;99.90;;;;;;4754118;30;20055;-75
2023/01/01 04:30:05;;;;;;;13.52;5.97;;;12.70;99.90;;;;;;4754804;30;20056;-76
2023/01/01 04:32:31;;;;;;;17.00;6.90;;;12.70;99.90;;;;;;4753919;30;20060;-82
2023/01/01 04:34:57;;;;;;;14.02;7.30;;;12.60;99.90;;;;;;4754225;30;20059;-77
2023/01/01 04:37:23;;;;;;;13.23;6.57;;;12.60;99.90;;;;;;4753786;30;20077;-75
2023/01/01 04:39:48;;;;;;;16.15;5.80;;;12.60;99.90;;;;;;4754131;30;20048;-76
2023/01/01 04:42:14;;;;;;;12.35;5.43;;;12.50;99.90;;;;;;4768722;30;20106;-76
2023/01/01 04:44:40;;;;;;;16.33;6.15;;;12.50;99.90;;;;;;4753597;30;20084;-78
2023/01/01 04:47:06;;;;;;;16.23;5.95;;;12.60;99.90;;;;;;4753999;30;20561;-79
2023/01/01 04:49:31;;;;;;;12.98;4.95;;;12.60;99.90;;;;;;4738976;30;20060;-76
2023/01/01 04:51:57;;;;;;;13.30;5.18;;;12.60;99.90;;;;;;4724428;30;20054;-76
2023/01/01 04:54:23;;;;;;;19.83;6.35;;;12.60;99.90;;;;;;4753834;30;20063;-78
2023/01/01 04:56:48;;;;;;;12.23;4.72;;;12.60;99.90;;;;;;4753945;30;20118;-77
2023/01/01 04:59:14;;;;;;;10.25;4.70;;;12.50;99.90;;;;;;4753728;30;20048;-76
2023/01/01 05:01:40;;;;;;;17.23;6.10;;;12.50;99.90;;;;;;4753627;30;20083;-77
2023/01/01 05:04:06;;;;;;;10.63;5.20;;;12.50;99.90;;;;;;4753498;30;20060;-76
2023/01/01 05:06:31;;;;;;;17.80;6.28;;;12.50;99.90;;;;;;4754575;30;20084;-78
2023/01/01 05:08:58;;;;;;;14.63;5.22;;;12.50;99.90;;;;;;4739172;30;20444;-77
2023/01/01 05:11:28;;;;;;;11.60;4.45;;;12.50;99.90;;;;;;4738598;30;20052;-75
2023/01/01 05:13:58;;;;;;;19.05;4.90;;;12.80;99.90;;;;;;4753280;30;20135;-77
2023/01/01 05:16:26;;;;;;;7.43;3.28;;;12.80;99.90;;;;;;4738555;30;20060;-76
2023/01/01 05:18:53;;;;;;;11.43;3.10;;;12.80;99.90;;;;;;4753571;30;20051;-77
2023/01/01 05:21:23;;;;;;;8.60;2.67;;;13.00;99.90;;;;;;4753365;30;20048;-74
2023/01/01 05:23:54;;;;;;;9.25;3.30;;;13.10;99.90;;;;;;4753482;30;20055;-76
2023/01/01 05:26:22;;;;;;;7.78;2.70;;;13.10;99.90;;;;;;4738900;30;20401;-75
2023/01/01 05:28:49;;;;;;;9.63;2.97;;;13.10;99.90;;;;;;4752777;30;20561;-75
2023/01/01 05:31:18;;;;;;;9.57;2.72;;;13.10;99.90;;;;;;4738348;30;20052;-75
2023/01/01 05:33:44;;;;;;;6.43;2.28;;;13.20;99.90;;;;;;4752903;30;20063;-76
2023/01/01 05:36:37;;;;;;;8.70;2.75;;;13.20;99.90;;;;;;4738561;30;20079;-76
2023/01/01 05:39:04;;;;;;;8.40;2.90;;;13.30;99.90;;;;;;4753187;30;20453;-75
2023/01/01 05:41:30;;;;;;;9.98;3.10;;;13.20;99.90;;;;;;4752958;30;20052;-78
2023/01/01 05:43:56;;;;;;;11.18;3.13;;;13.20;99.90;;;;;;4753071;30;20067;-77
2023/01/01 05:46:23;;;;;;;11.15;3.33;;;13.20;99.90;;;;;;4738343;30;20055;-77
2023/01/01 05:48:51;;;;;;;5.53;2.50;;;13.20;99.90;;;;;;4752887;30;20165;-76
2023/01/01 05:51:19;;;;;;;9.50;2.40;;;13.10;99.90;;;;;;4752344;30;20068;-77
2023/01/01 05:53:45;;;;;;;7.72;2.63;;;13.10;99.90;;;;;;4752834;30;20052;-76
2023/01/01 05:56:12;;;;;;;8.85;2.58;;;13.20;99.90;;;;;;4738330;30;20062;-80
2023/01/01 05:58:38;;;;;;;6.47;1.90;;;13.30;99.90;;;;;;4752665;30;20088;-75
2023/01/01 06:01:12;;;;;;;7.13;1.88;;;13.40;99.90;;;;;;4752664;30;20498;-76
2023/01/01 06:03:38;;;;;;;5.05;1.70;;;13.40;99.90;;;;;;4752677;30;20478;-74
2023/01/01 06:06:09;;;;;;;5.22;1.92;;;13.40;99.90;;;;;;4752447;30;20844;-76
2023/01/01 06:08:35;;;;;;;7.88;2.03;;;13.30;99.90;;;;;;4752644;30;20048;-75
2023/01/01 06:11:03;;;;;;;5.38;2.35;;;13.30;99.90;;;;;;4737794;30;20123;-76
2023/01/01 06:13:29;;;;;;;4.63;1.65;;;13.30;99.90;;;;;;4752570;30;20048;-75
2023/01/01 06:15:56;;;;;;;3.80;1.58;;;13.30;99.90;;;;;;4752590;30;20087;-76
2023/01/01 06:18:23;;;;;;;4.65;1.70;;;13.30;99.90;;;;;;4752446;30;20059;-75
2023/01/01 06:20:49;;;;;;;7.50;1.90;;;13.30;99.90;;;;;;4737491;30;20087;-76
2023/01/01 06:23:15;;;;;;;6.13;1.52;;;13.30;99.90;;;;;;4752390;30;20060;-76
2023/01/01 06:25:41;;;;;;;6.10;1.58;;;13.30;99.90;;;;;;4752220;30;20087;-76
2023/01/01 06:28:07;;;;;;;3.92;1.30;;;13.20;99.90;;;;;;4752549;30;20462;-75
2023/01/01 06:30:33;;;;;;;4.65;1.40;;;13.30;99.90;;;;;;4752073;30;20056;-76
2023/01/01 06:33:02;;;;;;;6.57;1.60;;;13.20;99.90;;;;;;4752311;30;20409;-76
2023/01/01 06:35:28;;;;;;;4.00;1.40;;;13.30;99.90;;;;;;4752238;30;20139;-79
2023/01/01 06:37:54;;;;;;;8.00;1.65;;;13.20;99.90;;;;;;4722880;30;20150;-75
2023/01/01 06:40:20;;;;;;;9.38;1.48;;;13.20;99.90;;;;;;4751406;30;20143;-77
2023/01/01 06:42:45;;;;;;;5.90;1.30;;;13.20;99.90;;;;;;4737206;30;20060;-77
2023/01/01 06:45:12;;;;;;;6.32;1.40;;;13.20;99.90;;;;;;4737347;30;20054;-77
2023/01/01 06:47:38;;;;;;;4.72;1.10;;;13.10;99.90;;;;;;4722667;30;20140;-75
2023/01/01 06:50:05;;;;;;;2.53;1.30;;;13.10;99.90;;;;;;4722482;30;20056;-76
2023/01/01 06:52:31;;;;;;;4.47;1.50;;;13.00;99.90;;;;;;4737272;30;20059;-75
2023/01/01 06:54:56;;;;;;;3.63;1.17;;;13.00;99.90;;;;;;4737151;30;20058;-77
2023/01/01 06:57:23;;;;;;;4.97;1.00;;;13.10;99.90;;;;;;4736929;30;20490;-76
2023/01/01 06:59:49;;;;;;;3.85;0.90;;;13.00;99.90;;;;;;4751686;30;20048;-74
2023/01/01 07:02:15;;;;;;;5.38;1.05;;;13.00;99.90;;;;;;4751939;30;20489;-77
2023/01/01 07:04:41;;;;;;;4.93;1.15;;;13.00;99.90;;;;;;4736746;30;20048;-75
2023/01/01 07:07:06;;;;;;;3.97;0.77;;;12.90;99.90;;;;;;4752786;30;20063;-79
2023/01/01 07:09:32;;;;;;;4.93;1.10;;;12.90;99.90;;;;;;4737029;30;20469;-75
2023/01/01 07:11:58;;;;;;;5.82;1.30;;;12.90;99.90;;;;;;4736455;30;20048;-76
2023/01/01 07:14:24;;;;;;;5.07;1.02;;;12.80;99.90;;;;;;4751784;30;20100;-77
2023/01/01 07:16:49;;;;;;;2.55;0.60;;;12.80;99.90;;;;;;4752322;30;20052;-75
2023/01/01 07:19:15;;;;;;;5.80;1.13;;;12.80;99.90;;;;;;4751203;30;20048;-78
2023/01/01 07:21:46;;;;;;;5.00;0.90;;;12.70;99.90;;;;;;4751015;30;20121;-75
2023/01/01 07:24:13;;;;;;;4.10;1.02;;;12.70;99.90;;;;;;4751509;30;20062;-76
2023/01/01 07:26:40;;;;;;;5.22;1.00;;;12.70;99.90;;;;;;4751505;30;20074;-78
2023/01/01 07:29:07;;;;;;;4.13;1.15;;;12.70;99.90;;;;;;4751505;30;20064;-76
2023/01/01 07:31:34;;;;;;;5.38;1.00;;;12.70;99.90;;;;;;4750979;30;20084;-75
2023/01/01 07:34:00;;;;;;;6.53;1.20;;;12.60;99.90;;;;;;4751203;30;20449;-78
2023/01/01 07:36:26;;;;;;;6.97;1.50;;;12.70;99.90;;;;;;4751300;30;20142;-75
2023/01/01 07:38:51;;;;;;;11.85;1.40;;;12.70;99.90;;;;;;4751008;30;20055;-76
2023/01/01 07:41:17;;;;;;;10.45;1.50;;;12.60;99.90;;;;;;4736555;30;20548;-74
2023/01/01 07:43:43;;;;;;;10.77;1.17;;;12.70;99.90;;;;;;4750655;30;20094;-75
2023/01/01 07:46:11;;;;;;;12.38;1.95;;;12.70;99.90;;;;;;4750791;30;20085;-75
2023/01/01 07:48:37;;;;;;;10.25;1.65;;;12.70;99.90;;;;;;4750444;30;20052;-74
2023/01/01 07:51:03;;;;;;;7.28;1.20;;;12.60;99.90;;;;;;4735333;30;20075;-79
2023/01/01 07:53:28;;;;;;;5.55;1.20;;;12.60;99.90;;;;;;4750445;30;20043;-75
2023/01/01 07:55:54;;;;;;;6.38;1.15;;;12.60;99.90;;;;;;4735272;30;20055;-75
2023/01/01 07:58:21;;;;;;;4.30;1.20;;;12.60;99.90;;;;;;4750266;30;20065;-75
2023/01/01 08:00:47;;;;;;;10.20;1.10;;;12.60;99.90;;;;;;4750045;30;20186;-76
2023/01/01 08:03:14;;;;;;;6.80;1.30;;;12.60;99.90;;;;;;4750091;30;20146;-77
2023/01/01 08:05:39;;;;;;;8.30;1.40;;;12.50;99.90;;;;;;4736466;30;20048;-77
2023/01/01 08:08:05;;;;;;;6.10;1.35;;;12.50;99.90;;;;;;4750708;30;20128;-76
2023/01/01 08:10:31;;;;;;;11.60;1.85;;;12.50;99.90;;;;;;4750401;30;20080;-76
2023/01/01 08:13:03;;;;;;;9.90;1.40;;;12.50;99.90;;;;;;4736217;30;20048;-75
2023/01/01 08:15:29;;;;;;;7.10;1.55;;;12.50;99.90;;;;;;4748374;30;20139;-76
2023/01/01 08:17:56;;;;;;;6.72;1.63;;;12.40;99.90;;;;;;4735681;30;20048;-76
2023/01/01 08:20:22;;;;;;;9.98;1.63;;;12.40;99.90;;;;;;4750636;30;20052;-75
2023/01/01 08:22:47;;;;;;;11.35;1.60;;;12.40;99.90;;;;;;4417508;30;10000564;-77
2023/01/01 08:25:13;;;;;;;6.47;1.65;;;12.40;99.90;;;;;;4734320;30;20468;-75
2023/01/01 08:27:39;;;;;;;7.32;1.60;;;12.50;99.90;;;;;;4749686;30;20059;-75
2023/01/01 08:30:05;;;;;;;6.22;1.27;;;12.50;99.90;;;;;;4748497;30;20083;-77
2023/01/01 08:32:31;;;;;;;9.75;1.55;;;12.40;99.90;;;;;;4748753;30;20044;-74
2023/01/01 08:34:56;;;;;;;10.23;1.75;;;12.40;99.90;;;;;;4719976;30;20053;-81
2023/01/01 08:37:23;;;;;;;12.93;2.03;;;12.40;99.90;;;;;;4731177;30;20481;-78
2023/01/01 08:39:50;;;;;;;8.27;1.55;;;12.40;99.90;;;;;;4731196;30;20060;-76
2023/01/01 08:42:15;;;;;;;15.23;2.67;;;12.50;99.90;;;;;;4732284;30;20052;-78
2023/01/01 08:44:41;;;;;;;11.13;1.83;;;12.40;99.90;;;;;;4733464;30;20055;-77
2023/01/01 08:47:22;;;;;;;7.05;1.40;;;12.40;99.90;;;;;;4732758;30;20050;-76
2023/01/01 08:49:48;;;;;;;8.98;1.70;;;12.40;99.90;;;;;;4716292;30;20119;-81
2023/01/01 08:52:14;;;;;;;5.50;1.63;;;12.40;99.90;;;;;;4730672;30;20104;-75
2023/01/01 08:54:40;;;;;;;11.75;2.67;;;12.40;99.90;;;;;;4730699;30;20088;-76
2023/01/01 08:57:06;;;;;;;10.50;1.85;;;12.30;99.90;;;;;;4736458;30;20054;-75
2023/01/01 08:59:31;;;;;;;7.78;1.40;;;12.30;99.90;;;;;;4718772;30;20060;-74
2023/01/01 09:01:58;;;;;;;9.15;1.45;;;12.40;99.90;;;;;;4748223;30;20059;-78
2023/01/01 09:04:24;;;;;;;12.05;2.05;;;12.40;99.90;;;;;;4748047;30;20453;-78
2023/01/01 09:06:50;;;;;;;10.63;1.63;;;12.40;99.90;;;;;;4733557;30;20117;-77
2023/01/01 09:09:16;;;;;;;10.23;1.73;;;12.40;99.90;;;;;;4704262;30;20449;-79
2023/01/01 09:11:53;;;;;;;10.80;1.88;;;12.30;99.90;;;;;;4705043;30;20597;-77
2023/01/01 09:14:19;;;;;;;10.90;1.63;;;12.30;99.90;;;;;;4719389;30;20060;-78
2023/01/01 09:16:45;;;;;;;12.23;1.63;;;12.40;99.90;;;;;;4735095;30;20092;-78
2023/01/01 09:19:12;;;;;;;9.40;1.50;;;12.40;99.90;;;;;;4733561;30;20107;-76
2023/01/01 09:21:37;;;;;;;13.90;2.10;;;12.40;99.90;;;;;;4721757;30;20501;-79
2023/01/01 09:24:03;;;;;;;13.00;2.03;;;12.30;99.90;;;;;;4736468;30;20052;-77
2023/01/01 09:30:10;;;;;;;23.90;5.97;;;12.40;99.90;;;;;;4753916;30;20138;-76
2023/01/01 09:32:36;;;;;;;8.00;1.73;;;12.40;99.90;;;;;;4753312;30;20066;-75
2023/01/01 09:35:02;;;;;;;10.05;1.63;;;12.40;99.90;;;;;;4738494;30;20056;-82
2023/01/01 09:37:28;;;;;;;16.63;2.13;;;12.40;99.90;;;;;;4724143;30;20063;-75
2023/01/01 09:39:53;;;;;;;11.57;2.30;;;12.40;99.90;;;;;;4753282;30;20060;-75
2023/01/01 09:42:35;;;;;;;7.85;1.67;;;12.40;99.90;;;;;;4723639;30;20055;-77
2023/01/01 09:45:23;;;;;;;15.93;2.20;;;12.40;99.90;;;;;;4738320;30;20158;-78
2023/01/01 09:47:53;;;;;;;13.93;2.10;;;12.40;99.90;;;;;;4738468;30;20051;-76
2023/01/01 09:50:38;;;;;;;12.18;1.90;;;12.30;99.90;;;;;;4752498;30;20090;-76
2023/01/01 09:53:36;;;;;;;10.45;2.03;;;12.40;99.90;;;;;;4738103;30;20052;-76
2023/01/01 09:56:03;;;;;;;10.38;1.88;;;12.40;99.90;;;;;;4752408;30;20068;-76
2023/01/01 09:58:34;;;;;;;10.27;2.25;;;12.40;99.90;;;;;;4738173;30;20054;-76
2023/01/01 10:01:38;;;;;;;10.18;1.30;;;12.40;99.90;;;;;;4752658;30;20083;-78
2023/01/01 10:04:41;;;;;;;12.68;1.48;;;12.40;99.90;;;;;;4752649;30;20068;-75
2023/01/01 10:07:16;;;;;;;7.03;1.23;;;12.40;99.90;;;;;;4752630;30;20095;-76
2023/01/01 10:10:19;;;;;;;8.52;1.90;;;12.40;99.90;;;;;;4752760;30;20060;-76
2023/01/01 10:12:59;;;;;;;8.75;2.00;;;12.50;99.90;;;;;;4752800;30;20076;-75
2023/01/01 10:15:38;;;;;;;16.08;2.03;;;12.50;99.90;;;;;;4752422;30;20449;-76
2023/01/01 10:18:15;;;;;;;8.15;1.58;;;12.50;99.90;;;;;;4752392;30;20052;-75
2023/01/01 10:20:58;;;;;;;9.77;1.80;;;12.40;99.90;;;;;;4752370;30;20457;-74
2023/01/01 10:23:41;;;;;;;12.07;2.00;;;12.40;99.90;;;;;;4737719;30;20060;-74
2023/01/01 10:26:20;;;;;;;9.35;1.98;;;12.50;99.90;;;;;;4752298;30;20123;-77
2023/01/01 10:29:00;;;;;;;12.85;2.08;;;12.40;99.90;;;;;;4737658;30;20187;-77
2023/01/01 10:31:40;;;;;;;13.63;2.20;;;12.40;99.90;;;;;;4751908;30;20056;-77
2023/01/01 10:34:27;;;;;;;13.68;2.38;;;12.50;99.90;;;;;;4752134;30;20263;-77
2023/01/01 10:36:56;;;;;;;11.57;1.92;;;12.60;99.90;;;;;;4737216;30;20472;-76
2023/01/01 10:39:22;;;;;;;14.00;1.90;;;12.70;99.90;;;;;;4751996;30;20064;-76
2023/01/01 10:41:49;;;;;;;4.55;1.25;;;12.60;99.90;;;;;;4402485;30;9999888;-75
2023/01/01 10:44:28;;;;;;;8.68;1.65;;;12.60;99.90;;;;;;4735336;30;20061;-76
2023/01/01 10:46:57;;;;;;;12.15;2.33;;;12.50;99.90;;;;;;4749305;30;20060;-76
2023/01/01 10:49:23;;;;;;;9.85;1.50;;;12.50;99.90;;;;;;4749171;30;20071;-75
2023/01/01 10:51:52;;;;;;;10.57;1.60;;;12.40;99.90;;;;;;4749183;30;20408;-73
2023/01/01 10:54:37;;;;;;;9.82;1.75;;;12.40;99.90;;;;;;4749828;30;20405;-75
2023/01/01 10:57:29;;;;;;;13.93;2.40;;;12.50;99.90;;;;;;4748985;30;20081;-78
2023/01/01 11:00:09;;;;;;;8.95;1.65;;;12.30;99.90;;;;;;4735061;30;20143;-73
2023/01/01 11:02:36;;;;;;;10.25;1.98;;;12.30;99.90;;;;;;4749430;30;20406;-74
2023/01/01 11:05:12;;;;;;;7.57;1.45;;;12.30;99.90;;;;;;4749337;30;20080;-74
2023/01/01 11:07:41;;;;;;;8.70;1.55;;;12.30;99.90;;;;;;4749647;30;20062;-75
2023/01/01 11:10:17;;;;;;;11.85;1.88;;;12.20;99.90;;;;;;4749553;30;20502;-74
2023/01/01 11:12:43;;;;;;;9.68;1.90;;;12.30;99.90;;;;;;4734913;30;20113;-76
2023/01/01 11:15:22;;;;;;;14.05;1.90;;;12.30;99.90;;;;;;4734937;30;20059;-76
2023/01/01 11:17:48;;;;;;;9.85;1.88;;;12.20;99.90;;;;;;4734778;30;20064;-74
2023/01/01 11:20:20;;;;;;;8.13;1.38;;;12.20;99.90;;;;;;4749253;30;20059;-73
2023/01/01 11:22:51;;;;;;;8.13;1.80;;;12.20;99.90;;;;;;4749530;30;20052;-76
2023/01/01 11:25:17;;;;;;;;;;;12.20;99.90;;;;;;4749524;30;20062;-76
2023/01/01 11:27:43;;;;;;;8.15;1.48;;;12.20;99.90;;;;;;4748985;30;19926;-74
2023/01/01 11:30:26;;;;;;;8.93;1.65;;;12.20;99.90;;;;;;4719506;30;20059;-75
2023/01/01 11:33:00;;;;;;;11.88;1.50;;;12.20;99.90;;;;;;4734718;30;20110;-75
2023/01/01 11:35:32;;;;;;;8.65;1.15;;;12.30;99.90;;;;;;4734501;30;20048;-75
2023/01/01 11:37:58;;;;;;;7.88;2.13;;;12.50;99.90;;;;;;4748671;30;20048;-75
2023/01/01 11:40:37;;;;;;;14.45;4.32;;;12.80;99.90;;;;;;4733499;30;20128;-74
2023/01/01 11:43:05;;;;;;;7.72;2.35;;;12.80;99.90;;;;;;4747104;30;20060;-75
2023/01/01 11:45:40;;;;;;;9.02;1.42;;;12.80;99.90;;;;;;4748412;30;20174;-77
2023/01/01 11:48:15;;;;;;;7.40;1.13;;;12.70;99.90;;;;;;4762221;30;20079;-73
2023/01/01 11:50:54;;;;;;;11.40;1.45;;;12.70;99.90;;;;;;4751498;30;20090;-79
2023/01/01 11:53:23;;;;;;;8.82;1.80;;;12.70;99.90;;;;;;4766122;30;20062;-80
2023/01/01 11:56:01;;;;;;;11.30;1.45;;;12.70;99.90;;;;;;4751893;30;20377;-74
2023/01/01 11:58:26;;;;;;;9.60;1.95;;;12.70;99.90;;;;;;4766550;30;20122;-75
2023/01/01 12:00:56;;;;;;;10.98;2.63;;;12.70;99.90;;;;;;4749393;30;20536;-77
2023/01/01 12:03:47;;;;;;;8.23;1.63;;;12.70;99.90;;;;;;4738211;30;20509;-73
2023/01/01 12:06:29;;;;;;;10.00;1.17;;;12.80;99.90;;;;;;4746712;30;20135;-74
2023/01/01 12:09:17;;;;;;;8.07;1.67;;;13.10;99.90;;;;;;4744680;30;20048;-74
2023/01/01 12:12:07;;;;;;;11.00;1.58;;;13.40;99.90;;;;;;4747674;30;20052;-75
2023/01/01 12:14:53;;;;;;;10.43;1.90;;;13.60;99.90;;;;;;4748823;30;20520;-75
2023/01/01 12:17:27;;;;;;;12.23;1.55;;;13.70;99.90;;;;;;4748464;30;20056;-73
2023/01/01 12:20:33;;;;;;;11.45;1.48;;;13.80;99.90;;;;;;4748656;30;20537;-75
2023/01/01 12:23:00;;;;;;;16.00;2.08;;;13.80;99.90;;;;;;4735631;30;20060;-75
2023/01/01 12:25:35;;;;;;;13.20;1.90;;;13.90;99.90;;;;;;4748244;30;20070;-75
2023/01/01 12:28:22;;;;;;;10.95;1.75;;;13.90;99.90;;;;;;4748429;30;20070;-76
2023/01/01 12:31:18;;;;;;;15.70;2.20;;;13.70;49.20;;;;;;4748727;30;20144;-75
2023/01/01 12:34:03;;;;;;;22.00;4.63;;;13.60;99.90;;;;;;4748737;30;20138;-76
2023/01/01 12:37:02;;;;;;;11.65;2.08;;;13.40;99.90;;;;;;4748629;30;20102;-74
2023/01/01 12:40:04;;;;;;;8.75;1.70;;;13.30;99.90;;;;;;4750847;30;20064;-75
2023/01/01 12:43:01;;;;;;;9.15;1.48;;;13.20;99.90;;;;;;4751679;30;20048;-74
2023/01/01 12:45:56;;;;;;;13.45;1.63;;;13.10;99.90;;;;;;4751875;30;20066;-73
2023/01/01 12:48:37;;;;;;;11.02;1.75;;;13.20;99.90;;;;;;4734636;30;20087;-75
2023/01/01 12:51:39;;;;;;;9.63;1.48;;;13.30;99.90;;;;;;4751672;30;20064;-75
2023/01/01 12:54:25;;;;;;;6.63;1.48;;;13.50;99.90;;;;;;4750104;30;20048;-75
2023/01/01 12:57:03;;;;;;;13.30;1.60;;;13.40;99.90;;;;;;4751894;30;20113;-74
2023/01/01 12:59:35;;;;;;;10.82;1.98;;;13.30;99.90;;;;;;4751590;30;20071;-74
2023/01/01 13:02:10;;;;;;;11.82;2.15;;;13.20;99.90;;;;;;4751599;30;20055;-75
2023/01/01 13:04:38;;;;;;;8.23;1.73;;;13.20;99.90;;;;;;4745691;30;20410;-73
2023/01/01 13:07:10;;;;;;;11.57;2.03;;;13.20;99.90;;;;;;4733850;30;20067;-74